createdAt,value
2018-10-21T00:00:19.051Z,18
2018-10-21T00:05:18.469Z,18
2018-10-21T00:10:17.801Z,18
2018-10-21T00:15:16.831Z,17.9
2018-10-21T00:20:15.953Z,17.9
2018-10-21T00:25:14.895Z,17.9
2018-10-21T00:30:14.212Z,17.8
2018-10-21T00:35:13.288Z,17.8
2018-10-21T00:40:11.855Z,17.8
2018-10-21T00:45:10.889Z,17.8
2018-10-21T00:50:10.328Z,17.7
2018-10-21T00:55:09.453Z,17.7
2018-10-21T01:00:08.167Z,17.7
2018-10-21T01:05:06.372Z,17.6
2018-10-21T01:10:05.781Z,17.6
2018-10-21T01:15:04.960Z,17.6
2018-10-21T01:20:03.861Z,16.7
2018-10-21T01:25:03.175Z,17.5
2018-10-21T01:30:02.273Z,17.5
2018-10-21T01:35:01.060Z,17.5
2018-10-21T01:40:00.272Z,17.5
2018-10-21T01:44:59.015Z,17.4
2018-10-21T01:49:58.244Z,17.4
2018-10-21T01:54:57.110Z,17.4
2018-10-21T01:59:56.561Z,17.4
2018-10-21T02:04:55.591Z,17.3
2018-10-21T02:09:54.837Z,16.8
2018-10-21T02:14:53.782Z,17.3
2018-10-21T02:19:52.997Z,17.3
2018-10-21T02:24:52.124Z,17.2
2018-10-21T02:29:51.374Z,17.2
2018-10-21T02:34:50.091Z,17.2
2018-10-21T02:39:49.424Z,16.6
2018-10-21T02:44:48.642Z,17.1
2018-10-21T02:49:47.911Z,17.1
2018-10-21T02:54:47.205Z,17.1
2018-10-21T02:59:46.144Z,16.6
2018-10-21T03:04:45.344Z,17
2018-10-21T03:09:44.627Z,17
2018-10-21T03:14:43.503Z,17
2018-10-21T03:19:42.236Z,16.9
2018-10-21T03:24:40.549Z,16.9
2018-10-21T03:29:39.946Z,16.7
2018-10-21T03:34:39.012Z,16.9
2018-10-21T03:39:37.947Z,16.6
2018-10-21T03:44:37.110Z,16.8
2018-10-21T03:49:36.274Z,16.8
2018-10-21T03:54:35.047Z,16.8
2018-10-21T03:59:34.335Z,16.7
2018-10-21T04:04:32.836Z,16.7
2018-10-21T04:09:31.689Z,16.7
2018-10-21T04:14:30.779Z,16.6
2018-10-21T04:19:30.000Z,16.6
2018-10-21T04:24:29.216Z,16.6
2018-10-21T04:29:28.076Z,16.5
2018-10-21T04:34:26.624Z,16.5
2018-10-21T04:39:25.539Z,15.5
2018-10-21T04:44:24.488Z,16.5
2018-10-21T04:49:23.745Z,15.4
2018-10-21T04:54:23.041Z,16.4
2018-10-21T04:59:22.303Z,16.4
2018-10-21T05:04:21.109Z,16.3
2018-10-21T05:09:20.406Z,16.3
2018-10-21T05:14:18.946Z,16.3
2018-10-21T05:19:17.780Z,16.2
2018-10-21T05:24:16.769Z,16.2
2018-10-21T05:29:15.822Z,16.2
2018-10-21T05:34:14.635Z,16.1
2018-10-21T05:39:14.255Z,15.1
2018-10-21T05:44:12.611Z,16.1
2018-10-21T05:49:11.942Z,16
2018-10-21T05:54:10.625Z,16
2018-10-21T05:59:09.908Z,16
2018-10-21T06:04:08.966Z,16
2018-10-21T06:09:08.331Z,15.9
2018-10-21T06:14:07.206Z,14.9
2018-10-21T06:19:06.374Z,15.9
2018-10-21T06:24:05.068Z,15.9
2018-10-21T06:29:04.661Z,15.3
2018-10-21T06:34:03.667Z,15.8
2018-10-21T06:39:02.393Z,15.8
2018-10-21T06:44:01.357Z,15.8
2018-10-21T06:49:00.519Z,15.7
2018-10-21T06:53:59.390Z,15.7
2018-10-21T06:58:58.678Z,15.7
2018-10-21T07:03:57.698Z,15.4
2018-10-21T07:08:56.986Z,15.6
2018-10-21T07:13:56.049Z,15.1
2018-10-21T07:18:55.618Z,14.9
2018-10-21T07:23:55.090Z,15.6
2018-10-21T07:28:54.395Z,15.6
2018-10-21T07:33:52.897Z,15.3
2018-10-21T07:38:51.797Z,15.5
2018-10-21T07:43:50.740Z,15.5
2018-10-21T07:48:50.053Z,15.5
2018-10-21T07:53:49.315Z,15.5
2018-10-21T07:58:48.510Z,15.5
2018-10-21T08:03:47.688Z,15.5
2018-10-21T08:08:46.970Z,15.5
2018-10-21T08:13:46.315Z,15.5
2018-10-21T08:18:45.224Z,15.1
2018-10-21T08:23:44.608Z,15.4
2018-10-21T08:28:43.735Z,15.4
2018-10-21T08:33:43.104Z,15.4
2018-10-21T08:38:42.249Z,15.4
2018-10-21T08:43:40.989Z,14.9
2018-10-21T08:48:40.180Z,15.4
2018-10-21T08:53:38.981Z,15
2018-10-21T08:58:38.185Z,15.4
2018-10-21T09:03:37.299Z,15.4
2018-10-21T09:08:36.340Z,15.4
2018-10-21T09:13:35.192Z,15.4
2018-10-21T09:18:34.112Z,15.2
2018-10-21T09:23:33.062Z,15.4
2018-10-21T09:28:32.875Z,15.4
2018-10-21T09:33:31.788Z,14.9
2018-10-21T09:38:31.230Z,15.5
2018-10-21T09:43:30.560Z,15.5
2018-10-21T09:48:29.418Z,14.9
2018-10-21T09:53:28.268Z,15.5
2018-10-21T09:58:27.249Z,15.5
2018-10-21T10:03:26.565Z,15.5
2018-10-21T10:08:25.700Z,15.5
2018-10-21T10:13:25.247Z,15.5
2018-10-21T10:18:24.499Z,15
2018-10-21T10:23:23.418Z,15
2018-10-21T10:28:22.997Z,15
2018-10-21T10:33:22.014Z,15.6
2018-10-21T10:38:21.411Z,15
2018-10-21T10:43:20.652Z,15.6
2018-10-21T10:48:19.876Z,15.1
2018-10-21T10:53:19.174Z,15.6
2018-10-21T10:58:18.361Z,15.6
2018-10-21T11:03:17.297Z,15.3
2018-10-21T11:08:16.359Z,15.6
2018-10-21T11:13:15.801Z,15.6
2018-10-21T11:18:15.107Z,15.6
2018-10-21T11:23:13.809Z,15.6
2018-10-21T11:28:13.448Z,15.6
2018-10-21T11:33:12.393Z,15.6
2018-10-21T11:38:11.478Z,15.7
2018-10-21T11:43:10.682Z,15.7
2018-10-21T11:48:10.182Z,15.7
2018-10-21T11:53:09.085Z,15.7
2018-10-21T11:58:08.427Z,15.7
2018-10-21T12:03:07.765Z,15.7
2018-10-21T12:08:07.105Z,15.7
2018-10-21T12:13:06.199Z,15.7
2018-10-21T12:18:04.980Z,15.2
2018-10-21T12:23:04.500Z,15.7
2018-10-21T12:28:02.987Z,15.7
2018-10-21T12:33:02.401Z,15.8
2018-10-21T12:38:01.816Z,15.8
2018-10-21T12:43:00.675Z,15.8
2018-10-21T12:47:59.886Z,15.8
2018-10-21T12:52:58.897Z,15.8
2018-10-21T12:57:57.402Z,15.8
2018-10-21T13:02:56.629Z,15.8
2018-10-21T13:07:55.637Z,15.8
2018-10-21T13:12:54.623Z,14.9
2018-10-21T13:17:54.235Z,14.9
2018-10-21T13:22:53.547Z,15.9
2018-10-21T13:27:52.908Z,15.9
2018-10-21T13:32:51.795Z,15.9
2018-10-21T13:37:50.773Z,15.6
2018-10-21T13:42:50.122Z,15.1
2018-10-21T13:47:49.032Z,15.9
2018-10-21T13:52:48.130Z,15.9
2018-10-21T13:57:47.374Z,15.9
2018-10-21T14:02:46.248Z,15.9
2018-10-21T14:07:45.272Z,15.4
2018-10-21T14:12:44.262Z,15.9
2018-10-21T14:17:43.600Z,15.9
2018-10-21T14:22:42.378Z,15.9
2018-10-21T14:27:41.815Z,15.9
2018-10-21T14:32:40.926Z,15.9
2018-10-21T14:37:40.005Z,16
2018-10-21T14:42:39.333Z,15.2
2018-10-21T14:47:38.172Z,15.8
2018-10-21T14:52:37.201Z,15.9
2018-10-21T14:57:36.216Z,15.9
2018-10-21T15:02:35.136Z,15.9
2018-10-21T15:07:34.533Z,15.9
2018-10-21T15:12:33.403Z,15.2
2018-10-21T15:17:32.291Z,15.9
2018-10-21T15:22:31.313Z,15.9
2018-10-21T15:27:30.348Z,15.9
2018-10-21T15:32:29.740Z,14.9
2018-10-21T15:37:28.611Z,15.9
2018-10-21T15:42:27.837Z,15.9
2018-10-21T15:47:27.644Z,15.9
2018-10-21T15:52:27.006Z,15.9
2018-10-21T15:57:25.987Z,15.9
2018-10-21T16:02:25.231Z,15.9
2018-10-21T16:07:24.112Z,15.5
2018-10-21T16:12:23.027Z,15.9
2018-10-21T16:17:21.488Z,15.3
2018-10-21T16:22:20.327Z,15.9
2018-10-21T16:27:19.841Z,15.9
2018-10-21T16:32:18.791Z,15.5
2018-10-21T16:37:17.910Z,15.7
2018-10-21T16:42:17.132Z,15.8
2018-10-21T16:47:16.055Z,15.3
2018-10-21T16:52:15.236Z,15.8
2018-10-21T16:57:14.553Z,15.8
2018-10-21T17:02:13.186Z,15.8
2018-10-21T17:07:12.308Z,15.5
2018-10-21T17:12:11.856Z,14.9
2018-10-21T17:17:10.539Z,15.7
2018-10-21T17:22:10.149Z,15.7
2018-10-21T17:27:09.046Z,15.3
2018-10-21T17:32:08.441Z,15.7
2018-10-21T17:37:07.345Z,15.7
2018-10-21T17:42:06.764Z,15.6
2018-10-21T17:47:05.531Z,15.6
2018-10-21T17:52:04.697Z,15.6
2018-10-21T17:57:03.855Z,15.4
2018-10-21T18:02:02.707Z,15.6
2018-10-21T18:07:01.640Z,15.6
2018-10-21T18:12:00.426Z,15.5
2018-10-21T18:16:59.285Z,15.5
2018-10-21T18:21:58.740Z,15.5
2018-10-21T18:26:57.920Z,15.5
2018-10-21T18:31:57.168Z,15.4
2018-10-21T18:36:56.411Z,15.4
2018-10-21T18:41:55.182Z,14.9
2018-10-21T18:46:54.004Z,14.9
2018-10-21T18:51:52.912Z,14.9
2018-10-21T18:56:52.245Z,15.4
2018-10-21T19:01:50.960Z,14.8
2018-10-21T19:06:50.306Z,14.8
2018-10-21T19:11:49.131Z,14.8
2018-10-21T19:16:48.163Z,15
2018-10-21T19:21:47.447Z,15.2
2018-10-21T19:26:46.886Z,15.2
2018-10-21T19:31:46.392Z,14.7
2018-10-21T19:36:45.289Z,14.6
2018-10-21T19:41:44.504Z,15.1
2018-10-21T19:46:43.740Z,15.1
2018-10-21T19:51:42.720Z,15.1
2018-10-21T19:56:41.877Z,14.6
2018-10-21T20:01:40.667Z,14.5
2018-10-21T20:06:39.826Z,15
2018-10-21T20:11:38.969Z,15
2018-10-21T20:16:38.182Z,15
2018-10-21T20:21:36.769Z,14.5
2018-10-21T20:26:35.669Z,14.9
2018-10-21T20:31:34.511Z,14.9
2018-10-21T20:36:33.819Z,14.9
2018-10-21T20:41:32.721Z,14.9
2018-10-21T20:46:31.989Z,14.9
2018-10-21T20:51:30.467Z,14.8
2018-10-21T20:56:30.057Z,14.8
2018-10-21T21:01:28.968Z,14.8
2018-10-21T21:06:27.725Z,14.8
2018-10-21T21:11:26.552Z,14.7
2018-10-21T21:16:25.382Z,14.2
2018-10-21T21:21:24.455Z,14.7
2018-10-21T21:26:23.239Z,14.2
2018-10-21T21:31:22.465Z,14.6
2018-10-21T21:36:20.983Z,14.1
2018-10-21T21:41:20.248Z,14.6
2018-10-21T21:46:19.468Z,14.6
2018-10-21T21:51:18.263Z,14
2018-10-21T21:56:17.329Z,14.5
2018-10-21T22:01:16.436Z,14.5
2018-10-21T22:06:15.347Z,13.9
2018-10-21T22:11:14.839Z,14.5
2018-10-21T22:16:14.247Z,14
2018-10-21T22:21:13.775Z,14.4
2018-10-21T22:26:12.752Z,14.4
2018-10-21T22:31:12.061Z,14.4
2018-10-21T22:36:10.556Z,13.8
2018-10-21T22:41:09.509Z,13.7
2018-10-21T22:46:08.452Z,13.7
2018-10-21T22:51:07.208Z,14.3
2018-10-21T22:56:05.975Z,13.7
2018-10-21T23:01:04.822Z,13.7
2018-10-21T23:06:04.278Z,14.2
2018-10-21T23:11:03.517Z,14
2018-10-21T23:16:02.298Z,13.6
2018-10-21T23:21:01.553Z,13.9
2018-10-21T23:26:00.647Z,13.6
2018-10-21T23:30:59.128Z,13.5
2018-10-21T23:35:58.334Z,13.5
2018-10-21T23:40:57.639Z,13.5
2018-10-21T23:45:56.859Z,13.5
2018-10-21T23:50:55.077Z,13.5
2018-10-21T23:55:54.450Z,13.5
